sensor_id;sensor_type;location;lat;lon;timestamp;temperature;humidity
15257;DHT22;7731;50.720;6.912;2023-08-07T00:02:11;13.60;99.90
15257;DHT22;7731;50.720;6.912;2023-08-07T00:04:41;13.50;99.90
15257;DHT22;7731;50.720;6.912;2023-08-07T00:07:12;13.50;99.90
15257;DHT22;7731;50.720;6.912;2023-08-07T00:09:48;13.40;99.90
15257;DHT22;7731;50.720;6.912;2023-08-07T00:12:26;13.30;99.90
15257;DHT22;7731;50.720;6.912;2023-08-07T00:14:57;13.30;99.90
15257;DHT22;7731;50.720;6.912;2023-08-07T00:17:27;13.30;99.90
15257;DHT22;7731;50.720;6.912;2023-08-07T00:19:58;13.30;99.90
15257;DHT22;7731;50.720;6.912;2023-08-07T00:22:31;13.30;99.90
15257;DHT22;7731;50.720;6.912;2023-08-07T00:25:02;13.30;99.90
15257;DHT22;7731;50.720;6.912;2023-08-07T00:27:42;13.40;99.90
15257;DHT22;7731;50.720;6.912;2023-08-07T00:30:12;13.40;99.90
15257;DHT22;7731;50.720;6.912;2023-08-07T00:32:46;13.40;99.90
15257;DHT22;7731;50.720;6.912;2023-08-07T00:35:19;13.50;99.90
15257;DHT22;7731;50.720;6.912;2023-08-07T00:37:49;13.50;99.90
15257;DHT22;7731;50.720;6.912;2023-08-07T00:40:19;13.40;99.90
15257;DHT22;7731;50.720;6.912;2023-08-07T00:42:52;13.50;99.90
15257;DHT22;7731;50.720;6.912;2023-08-07T00:45:29;13.50;99.90
15257;DHT22;7731;50.720;6.912;2023-08-07T00:48:16;13.40;99.90
15257;DHT22;7731;50.720;6.912;2023-08-07T00:50:48;13.40;99.90
15257;DHT22;7731;50.720;6.912;2023-08-07T00:53:20;13.50;99.90
15257;DHT22;7731;50.720;6.912;2023-08-07T00:55:51;13.50;99.90
15257;DHT22;7731;50.720;6.912;2023-08-07T00:58:24;13.40;99.90
15257;DHT22;7731;50.720;6.912;2023-08-07T01:00:58;13.50;99.90
15257;DHT22;7731;50.720;6.912;2023-08-07T01:03:28;13.50;99.90
15257;DHT22;7731;50.720;6.912;2023-08-07T01:05:59;13.50;99.90
15257;DHT22;7731;50.720;6.912;2023-08-07T01:08:32;13.60;99.90
15257;DHT22;7731;50.720;6.912;2023-08-07T01:11:20;13.50;99.90
15257;DHT22;7731;50.720;6.912;2023-08-07T01:14:10;13.50;99.90
15257;DHT22;7731;50.720;6.912;2023-08-07T01:16:57;13.40;99.90
15257;DHT22;7731;50.720;6.912;2023-08-07T01:19:32;13.40;99.90
15257;DHT22;7731;50.720;6.912;2023-08-07T01:22:09;13.40;99.90
15257;DHT22;7731;50.720;6.912;2023-08-07T01:24:48;13.40;99.90
15257;DHT22;7731;50.720;6.912;2023-08-07T01:27:27;13.40;99.90
15257;DHT22;7731;50.720;6.912;2023-08-07T01:30:14;13.40;99.90
15257;DHT22;7731;50.720;6.912;2023-08-07T01:32:58;13.40;99.90
15257;DHT22;7731;50.720;6.912;2023-08-07T01:35:39;13.40;99.90
15257;DHT22;7731;50.720;6.912;2023-08-07T01:38:17;13.40;99.90
15257;DHT22;7731;50.720;6.912;2023-08-07T01:40:51;13.40;99.90
15257;DHT22;7731;50.720;6.912;2023-08-07T01:43:23;13.50;99.90
15257;DHT22;7731;50.720;6.912;2023-08-07T01:45:56;13.50;99.90
15257;DHT22;7731;50.720;6.912;2023-08-07T01:48:30;13.50;99.90
15257;DHT22;7731;50.720;6.912;2023-08-07T01:51:03;13.60;99.90
15257;DHT22;7731;50.720;6.912;2023-08-07T01:53:36;13.60;99.90
15257;DHT22;7731;50.720;6.912;2023-08-07T01:56:06;13.60;99.90
15257;DHT22;7731;50.720;6.912;2023-08-07T01:58:36;13.60;99.90
15257;DHT22;7731;50.720;6.912;2023-08-07T02:01:06;13.50;99.90
15257;DHT22;7731;50.720;6.912;2023-08-07T02:03:39;13.50;99.90
15257;DHT22;7731;50.720;6.912;2023-08-07T02:06:17;13.60;99.90
15257;DHT22;7731;50.720;6.912;2023-08-07T02:08:50;13.60;99.90
15257;DHT22;7731;50.720;6.912;2023-08-07T02:11:20;13.60;99.90
15257;DHT22;7731;50.720;6.912;2023-08-07T02:13:51;13.60;99.90
15257;DHT22;7731;50.720;6.912;2023-08-07T02:16:21;13.60;99.90
15257;DHT22;7731;50.720;6.912;2023-08-07T02:18:59;13.60;99.90
15257;DHT22;7731;50.720;6.912;2023-08-07T02:21:36;13.60;99.90
15257;DHT22;7731;50.720;6.912;2023-08-07T02:24:09;13.60;99.90
15257;DHT22;7731;50.720;6.912;2023-08-07T02:26:43;13.60;99.90
15257;DHT22;7731;50.720;6.912;2023-08-07T02:29:14;13.60;99.90
15257;DHT22;7731;50.720;6.912;2023-08-07T02:31:44;13.60;99.90
15257;DHT22;7731;50.720;6.912;2023-08-07T02:34:14;13.50;99.90
15257;DHT22;7731;50.720;6.912;2023-08-07T02:36:45;13.50;99.90
15257;DHT22;7731;50.720;6.912;2023-08-07T02:39:18;13.50;99.90
15257;DHT22;7731;50.720;6.912;2023-08-07T02:41:51;13.50;99.90
15257;DHT22;7731;50.720;6.912;2023-08-07T02:44:21;13.50;99.90
15257;DHT22;7731;50.720;6.912;2023-08-07T02:46:52;13.40;99.90
15257;DHT22;7731;50.720;6.912;2023-08-07T02:49:22;13.40;99.90
15257;DHT22;7731;50.720;6.912;2023-08-07T02:51:53;13.50;99.90
15257;DHT22;7731;50.720;6.912;2023-08-07T02:54:33;13.50;99.90
15257;DHT22;7731;50.720;6.912;2023-08-07T02:57:03;13.40;99.90
15257;DHT22;7731;50.720;6.912;2023-08-07T02:59:34;13.50;99.90
15257;DHT22;7731;50.720;6.912;2023-08-07T03:02:07;13.40;99.90
15257;DHT22;7731;50.720;6.912;2023-08-07T03:04:38;13.40;99.90
15257;DHT22;7731;50.720;6.912;2023-08-07T03:07:08;13.50;99.90
15257;DHT22;7731;50.720;6.912;2023-08-07T03:09:45;13.40;99.90
15257;DHT22;7731;50.720;6.912;2023-08-07T03:12:19;13.40;99.90
15257;DHT22;7731;50.720;6.912;2023-08-07T03:14:49;13.30;99.90
15257;DHT22;7731;50.720;6.912;2023-08-07T03:17:20;13.40;99.90
15257;DHT22;7731;50.720;6.912;2023-08-07T03:20:05;13.40;99.90
15257;DHT22;7731;50.720;6.912;2023-08-07T03:22:36;13.40;99.90
15257;DHT22;7731;50.720;6.912;2023-08-07T03:25:10;13.30;99.90
15257;DHT22;7731;50.720;6.912;2023-08-07T03:27:40;13.30;99.90
15257;DHT22;7731;50.720;6.912;2023-08-07T03:30:13;13.30;99.90
15257;DHT22;7731;50.720;6.912;2023-08-07T03:32:43;13.30;99.90
15257;DHT22;7731;50.720;6.912;2023-08-07T03:35:14;13.20;99.90
15257;DHT22;7731;50.720;6.912;2023-08-07T03:37:47;13.10;99.90
15257;DHT22;7731;50.720;6.912;2023-08-07T03:40:35;13.20;99.90
15257;DHT22;7731;50.720;6.912;2023-08-07T03:43:06;13.10;99.90
15257;DHT22;7731;50.720;6.912;2023-08-07T03:45:39;13.10;99.90
15257;DHT22;7731;50.720;6.912;2023-08-07T03:48:10;13.10;99.90
15257;DHT22;7731;50.720;6.912;2023-08-07T03:50:43;13.10;99.90
15257;DHT22;7731;50.720;6.912;2023-08-07T03:53:13;13.10;99.90
15257;DHT22;7731;50.720;6.912;2023-08-07T03:55:52;13.10;99.90
15257;DHT22;7731;50.720;6.912;2023-08-07T03:58:22;13.10;99.90
15257;DHT22;7731;50.720;6.912;2023-08-07T04:00:52;13.00;99.90
15257;DHT22;7731;50.720;6.912;2023-08-07T04:03:23;12.80;99.90
15257;DHT22;7731;50.720;6.912;2023-08-07T04:05:54;12.80;99.90
15257;DHT22;7731;50.720;6.912;2023-08-07T04:08:27;12.80;99.90
15257;DHT22;7731;50.720;6.912;2023-08-07T04:11:03;12.80;99.90
15257;DHT22;7731;50.720;6.912;2023-08-07T04:13:35;12.80;99.90
15257;DHT22;7731;50.720;6.912;2023-08-07T04:16:08;12.80;99.90
15257;DHT22;7731;50.720;6.912;2023-08-07T04:18:41;12.70;99.90
15257;DHT22;7731;50.720;6.912;2023-08-07T04:21:13;12.50;99.90
15257;DHT22;7731;50.720;6.912;2023-08-07T04:23:43;12.50;99.90
15257;DHT22;7731;50.720;6.912;2023-08-07T04:26:19;12.50;99.90
15257;DHT22;7731;50.720;6.912;2023-08-07T04:28:49;12.50;99.90
15257;DHT22;7731;50.720;6.912;2023-08-07T04:31:19;12.60;99.90
15257;DHT22;7731;50.720;6.912;2023-08-07T04:33:53;12.60;99.90
15257;DHT22;7731;50.720;6.912;2023-08-07T04:36:23;12.60;99.90
15257;DHT22;7731;50.720;6.912;2023-08-07T04:38:53;12.70;99.90
15257;DHT22;7731;50.720;6.912;2023-08-07T04:41:27;12.70;99.90
15257;DHT22;7731;50.720;6.912;2023-08-07T04:43:57;12.70;99.90
15257;DHT22;7731;50.720;6.912;2023-08-07T04:46:28;12.80;99.90
15257;DHT22;7731;50.720;6.912;2023-08-07T04:49:00;12.80;99.90
15257;DHT22;7731;50.720;6.912;2023-08-07T04:51:30;12.90;99.90
15257;DHT22;7731;50.720;6.912;2023-08-07T04:54:01;12.90;99.90
15257;DHT22;7731;50.720;6.912;2023-08-07T04:56:34;13.00;99.90
15257;DHT22;7731;50.720;6.912;2023-08-07T04:59:10;13.00;99.90
15257;DHT22;7731;50.720;6.912;2023-08-07T05:01:43;13.00;99.90
15257;DHT22;7731;50.720;6.912;2023-08-07T05:04:23;13.00;99.90
15257;DHT22;7731;50.720;6.912;2023-08-07T05:06:53;13.00;99.90
15257;DHT22;7731;50.720;6.912;2023-08-07T05:09:25;13.10;99.90
15257;DHT22;7731;50.720;6.912;2023-08-07T05:12:04;13.10;99.90
15257;DHT22;7731;50.720;6.912;2023-08-07T05:14:38;13.10;99.90
15257;DHT22;7731;50.720;6.912;2023-08-07T05:17:11;13.10;99.90
15257;DHT22;7731;50.720;6.912;2023-08-07T05:19:41;13.10;99.90
15257;DHT22;7731;50.720;6.912;2023-08-07T05:22:11;13.20;99.90
15257;DHT22;7731;50.720;6.912;2023-08-07T05:24:45;13.30;99.90
15257;DHT22;7731;50.720;6.912;2023-08-07T05:27:18;13.40;99.90
15257;DHT22;7731;50.720;6.912;2023-08-07T05:29:48;13.30;99.90
15257;DHT22;7731;50.720;6.912;2023-08-07T05:32:19;13.30;99.90
15257;DHT22;7731;50.720;6.912;2023-08-07T05:34:49;13.30;99.90
15257;DHT22;7731;50.720;6.912;2023-08-07T05:37:22;13.20;99.90
15257;DHT22;7731;50.720;6.912;2023-08-07T05:40:03;13.20;99.90
15257;DHT22;7731;50.720;6.912;2023-08-07T05:42:37;13.30;99.90
15257;DHT22;7731;50.720;6.912;2023-08-07T05:45:08;13.40;99.90
15257;DHT22;7731;50.720;6.912;2023-08-07T05:47:39;13.50;99.90
15257;DHT22;7731;50.720;6.912;2023-08-07T05:50:10;13.60;99.90
15257;DHT22;7731;50.720;6.912;2023-08-07T05:52:43;13.60;99.90
15257;DHT22;7731;50.720;6.912;2023-08-07T05:55:13;13.70;99.90
15257;DHT22;7731;50.720;6.912;2023-08-07T05:57:46;13.70;99.90
15257;DHT22;7731;50.720;6.912;2023-08-07T06:00:20;13.70;99.90
15257;DHT22;7731;50.720;6.912;2023-08-07T06:02:50;13.60;99.90
15257;DHT22;7731;50.720;6.912;2023-08-07T06:05:24;13.70;99.90
15257;DHT22;7731;50.720;6.912;2023-08-07T06:07:54;13.70;99.90
15257;DHT22;7731;50.720;6.912;2023-08-07T06:10:25;13.70;99.90
15257;DHT22;7731;50.720;6.912;2023-08-07T06:12:58;13.70;99.90
15257;DHT22;7731;50.720;6.912;2023-08-07T06:15:32;13.50;99.90
15257;DHT22;7731;50.720;6.912;2023-08-07T06:20:48;13.60;99.90
15257;DHT22;7731;50.720;6.912;2023-08-07T06:23:21;13.60;99.90
15257;DHT22;7731;50.720;6.912;2023-08-07T06:25:52;13.60;99.90
15257;DHT22;7731;50.720;6.912;2023-08-07T06:28:28;13.50;99.90
15257;DHT22;7731;50.720;6.912;2023-08-07T06:31:01;13.60;99.90
15257;DHT22;7731;50.720;6.912;2023-08-07T06:33:39;13.60;99.90
15257;DHT22;7731;50.720;6.912;2023-08-07T06:36:14;13.50;99.90
15257;DHT22;7731;50.720;6.912;2023-08-07T06:38:44;13.50;99.90
15257;DHT22;7731;50.720;6.912;2023-08-07T06:41:15;13.60;99.90
15257;DHT22;7731;50.720;6.912;2023-08-07T06:43:48;13.60;99.90
15257;DHT22;7731;50.720;6.912;2023-08-07T06:46:18;13.50;99.90
15257;DHT22;7731;50.720;6.912;2023-08-07T06:48:51;13.50;99.90
15257;DHT22;7731;50.720;6.912;2023-08-07T06:51:24;13.30;99.90
15257;DHT22;7731;50.720;6.912;2023-08-07T06:53:55;13.30;99.90
15257;DHT22;7731;50.720;6.912;2023-08-07T06:56:25;13.30;99.90
15257;DHT22;7731;50.720;6.912;2023-08-07T06:59:01;13.10;99.90
15257;DHT22;7731;50.720;6.912;2023-08-07T07:01:31;13.10;99.90
15257;DHT22;7731;50.720;6.912;2023-08-07T07:04:02;13.10;99.90
15257;DHT22;7731;50.720;6.912;2023-08-07T07:06:32;12.90;99.90
15257;DHT22;7731;50.720;6.912;2023-08-07T07:09:03;12.90;99.90
15257;DHT22;7731;50.720;6.912;2023-08-07T07:11:36;13.00;99.90
15257;DHT22;7731;50.720;6.912;2023-08-07T07:14:10;13.20;99.90
15257;DHT22;7731;50.720;6.912;2023-08-07T07:16:40;13.20;99.90
15257;DHT22;7731;50.720;6.912;2023-08-07T07:19:10;13.30;99.90
15257;DHT22;7731;50.720;6.912;2023-08-07T07:21:43;13.20;99.90
15257;DHT22;7731;50.720;6.912;2023-08-07T07:24:14;13.10;99.90
15257;DHT22;7731;50.720;6.912;2023-08-07T07:26:44;13.10;99.90
15257;DHT22;7731;50.720;6.912;2023-08-07T07:29:19;13.10;99.90
15257;DHT22;7731;50.720;6.912;2023-08-07T07:31:52;13.10;99.90
15257;DHT22;7731;50.720;6.912;2023-08-07T07:34:23;13.20;99.90
15257;DHT22;7731;50.720;6.912;2023-08-07T07:36:53;13.20;99.90
15257;DHT22;7731;50.720;6.912;2023-08-07T07:39:26;13.20;99.90
15257;DHT22;7731;50.720;6.912;2023-08-07T07:41:57;13.20;99.90
15257;DHT22;7731;50.720;6.912;2023-08-07T07:44:30;13.20;99.90
15257;DHT22;7731;50.720;6.912;2023-08-07T07:47:02;13.30;99.90
15257;DHT22;7731;50.720;6.912;2023-08-07T07:49:45;13.30;99.90
15257;DHT22;7731;50.720;6.912;2023-08-07T07:52:16;13.30;99.90
15257;DHT22;7731;50.720;6.912;2023-08-07T07:54:46;13.30;99.90
15257;DHT22;7731;50.720;6.912;2023-08-07T07:57:17;13.30;99.90
15257;DHT22;7731;50.720;6.912;2023-08-07T07:59:52;13.40;99.90
15257;DHT22;7731;50.720;6.912;2023-08-07T08:02:25;13.40;99.90
15257;DHT22;7731;50.720;6.912;2023-08-07T08:04:58;13.40;99.90
15257;DHT22;7731;50.720;6.912;2023-08-07T08:07:29;13.40;99.90
15257;DHT22;7731;50.720;6.912;2023-08-07T08:10:01;13.50;99.90
15257;DHT22;7731;50.720;6.912;2023-08-07T08:12:31;13.60;99.90
15257;DHT22;7731;50.720;6.912;2023-08-07T08:15:05;13.80;99.90
15257;DHT22;7731;50.720;6.912;2023-08-07T08:17:41;13.90;99.90
15257;DHT22;7731;50.720;6.912;2023-08-07T08:20:11;13.90;99.90
15257;DHT22;7731;50.720;6.912;2023-08-07T08:22:47;14.00;99.90
15257;DHT22;7731;50.720;6.912;2023-08-07T08:25:18;14.00;99.90
15257;DHT22;7731;50.720;6.912;2023-08-07T08:27:51;14.20;99.90
15257;DHT22;7731;50.720;6.912;2023-08-07T08:30:24;14.20;99.90
15257;DHT22;7731;50.720;6.912;2023-08-07T08:33:05;14.40;99.90
15257;DHT22;7731;50.720;6.912;2023-08-07T08:35:39;14.80;99.90
15257;DHT22;7731;50.720;6.912;2023-08-07T08:38:10;14.90;99.90
15257;DHT22;7731;50.720;6.912;2023-08-07T08:40:40;15.00;99.90
15257;DHT22;7731;50.720;6.912;2023-08-07T08:43:12;15.20;99.90
15257;DHT22;7731;50.720;6.912;2023-08-07T08:45:56;15.30;99.90
15257;DHT22;7731;50.720;6.912;2023-08-07T08:48:28;15.40;99.90
15257;DHT22;7731;50.720;6.912;2023-08-07T08:51:06;15.70;99.90
15257;DHT22;7731;50.720;6.912;2023-08-07T08:53:40;15.60;99.90
15257;DHT22;7731;50.720;6.912;2023-08-07T08:56:13;15.70;99.90
15257;DHT22;7731;50.720;6.912;2023-08-07T08:58:44;15.70;99.90
15257;DHT22;7731;50.720;6.912;2023-08-07T09:01:17;15.80;99.90
15257;DHT22;7731;50.720;6.912;2023-08-07T09:03:55;15.70;99.90
15257;DHT22;7731;50.720;6.912;2023-08-07T09:06:28;15.60;99.90
15257;DHT22;7731;50.720;6.912;2023-08-07T09:09:13;15.80;99.90
15257;DHT22;7731;50.720;6.912;2023-08-07T09:11:45;15.80;99.90
15257;DHT22;7731;50.720;6.912;2023-08-07T09:14:22;16.00;99.90
15257;DHT22;7731;50.720;6.912;2023-08-07T09:17:01;16.00;99.90
15257;DHT22;7731;50.720;6.912;2023-08-07T09:19:34;16.10;99.90
15257;DHT22;7731;50.720;6.912;2023-08-07T09:22:05;16.50;99.90
15257;DHT22;7731;50.720;6.912;2023-08-07T09:24:36;16.50;99.90
15257;DHT22;7731;50.720;6.912;2023-08-07T09:27:19;16.80;99.90
15257;DHT22;7731;50.720;6.912;2023-08-07T09:29:54;17.10;99.90
15257;DHT22;7731;50.720;6.912;2023-08-07T09:32:28;17.30;99.90
15257;DHT22;7731;50.720;6.912;2023-08-07T09:34:58;17.90;99.90
15257;DHT22;7731;50.720;6.912;2023-08-07T09:37:28;18.50;99.90
15257;DHT22;7731;50.720;6.912;2023-08-07T09:40:00;18.40;99.90
15257;DHT22;7731;50.720;6.912;2023-08-07T09:42:31;18.30;99.90
15257;DHT22;7731;50.720;6.912;2023-08-07T09:45:03;18.00;99.90
15257;DHT22;7731;50.720;6.912;2023-08-07T09:48:03;17.30;99.90
15257;DHT22;7731;50.720;6.912;2023-08-07T09:50:41;17.10;99.90
15257;DHT22;7731;50.720;6.912;2023-08-07T09:53:35;16.80;99.90
15257;DHT22;7731;50.720;6.912;2023-08-07T09:56:06;16.60;99.90
15257;DHT22;7731;50.720;6.912;2023-08-07T09:58:37;16.30;99.90
15257;DHT22;7731;50.720;6.912;2023-08-07T10:01:08;16.30;99.90
15257;DHT22;7731;50.720;6.912;2023-08-07T10:03:42;16.30;99.90
15257;DHT22;7731;50.720;6.912;2023-08-07T10:06:17;16.40;99.90
15257;DHT22;7731;50.720;6.912;2023-08-07T10:08:50;16.10;99.90
15257;DHT22;7731;50.720;6.912;2023-08-07T10:11:21;16.00;99.90
15257;DHT22;7731;50.720;6.912;2023-08-07T10:13:55;16.20;99.90
15257;DHT22;7731;50.720;6.912;2023-08-07T10:16:40;16.20;99.90
15257;DHT22;7731;50.720;6.912;2023-08-07T10:19:15;16.50;99.90
15257;DHT22;7731;50.720;6.912;2023-08-07T10:21:50;16.90;99.90
15257;DHT22;7731;50.720;6.912;2023-08-07T10:24:24;17.50;92.00
15257;DHT22;7731;50.720;6.912;2023-08-07T10:26:56;18.00;73.40
15257;DHT22;7731;50.720;6.912;2023-08-07T10:29:29;18.20;85.10
15257;DHT22;7731;50.720;6.912;2023-08-07T10:32:05;17.80;95.60
15257;DHT22;7731;50.720;6.912;2023-08-07T10:34:40;17.60;99.90
15257;DHT22;7731;50.720;6.912;2023-08-07T10:37:40;17.20;99.90
15257;DHT22;7731;50.720;6.912;2023-08-07T10:40:23;16.90;99.90
15257;DHT22;7731;50.720;6.912;2023-08-07T10:42:59;16.70;99.90
15257;DHT22;7731;50.720;6.912;2023-08-07T10:45:41;16.30;99.90
15257;DHT22;7731;50.720;6.912;2023-08-07T10:48:18;16.10;99.90
15257;DHT22;7731;50.720;6.912;2023-08-07T10:51:03;16.10;99.90
15257;DHT22;7731;50.720;6.912;2023-08-07T10:53:35;16.50;99.90
15257;DHT22;7731;50.720;6.912;2023-08-07T10:56:10;17.20;99.90
15257;DHT22;7731;50.720;6.912;2023-08-07T10:58:51;18.10;99.90
15257;DHT22;7731;50.720;6.912;2023-08-07T11:01:40;18.90;94.60
15257;DHT22;7731;50.720;6.912;2023-08-07T11:04:12;19.30;56.90
15257;DHT22;7731;50.720;6.912;2023-08-07T11:06:52;19.20;60.90
15257;DHT22;7731;50.720;6.912;2023-08-07T11:09:22;18.60;44.70
15257;DHT22;7731;50.720;6.912;2023-08-07T11:11:53;19.20;74.60
15257;DHT22;7731;50.720;6.912;2023-08-07T11:14:23;20.50;23.60
15257;DHT22;7731;50.720;6.912;2023-08-07T11:16:54;21.00;1.00
15257;DHT22;7731;50.720;6.912;2023-08-07T11:19:25;20.10;1.00
15257;DHT22;7731;50.720;6.912;2023-08-07T11:22:05;19.50;19.00
15257;DHT22;7731;50.720;6.912;2023-08-07T11:24:38;19.20;51.80
15257;DHT22;7731;50.720;6.912;2023-08-07T11:27:09;19.20;51.60
15257;DHT22;7731;50.720;6.912;2023-08-07T11:29:39;19.40;44.80
15257;DHT22;7731;50.720;6.912;2023-08-07T11:32:14;19.60;32.70
15257;DHT22;7731;50.720;6.912;2023-08-07T11:34:51;19.60;27.90
15257;DHT22;7731;50.720;6.912;2023-08-07T11:37:24;19.90;21.10
15257;DHT22;7731;50.720;6.912;2023-08-07T11:40:01;19.60;17.00
15257;DHT22;7731;50.720;6.912;2023-08-07T11:42:35;19.60;40.80
15257;DHT22;7731;50.720;6.912;2023-08-07T11:45:11;19.80;24.50
15257;DHT22;7731;50.720;6.912;2023-08-07T11:47:42;19.40;7.00
15257;DHT22;7731;50.720;6.912;2023-08-07T11:50:15;18.90;21.50
15257;DHT22;7731;50.720;6.912;2023-08-07T11:52:51;18.80;39.10
15257;DHT22;7731;50.720;6.912;2023-08-07T11:55:28;19.40;47.70
15257;DHT22;7731;50.720;6.912;2023-08-07T11:58:02;20.20;1.00
15257;DHT22;7731;50.720;6.912;2023-08-07T12:00:34;20.60;1.00
15257;DHT22;7731;50.720;6.912;2023-08-07T12:03:23;21.40;1.00
15257;DHT22;7731;50.720;6.912;2023-08-07T12:05:58;21.90;1.00
15257;DHT22;7731;50.720;6.912;2023-08-07T12:08:36;21.20;1.00
15257;DHT22;7731;50.720;6.912;2023-08-07T12:11:09;20.50;1.00
15257;DHT22;7731;50.720;6.912;2023-08-07T12:13:41;19.90;1.00
15257;DHT22;7731;50.720;6.912;2023-08-07T12:16:14;20.00;1.00
15257;DHT22;7731;50.720;6.912;2023-08-07T12:18:47;19.80;1.00
15257;DHT22;7731;50.720;6.912;2023-08-07T12:21:22;19.40;1.00
15257;DHT22;7731;50.720;6.912;2023-08-07T12:23:57;19.20;1.00
15257;DHT22;7731;50.720;6.912;2023-08-07T12:26:34;19.60;1.00
15257;DHT22;7731;50.720;6.912;2023-08-07T12:29:04;19.60;1.00
15257;DHT22;7731;50.720;6.912;2023-08-07T12:31:37;19.30;1.00
15257;DHT22;7731;50.720;6.912;2023-08-07T12:34:08;19.20;1.00
15257;DHT22;7731;50.720;6.912;2023-08-07T12:36:43;19.40;1.00
15257;DHT22;7731;50.720;6.912;2023-08-07T12:39:16;19.60;1.00
15257;DHT22;7731;50.720;6.912;2023-08-07T12:41:50;19.70;1.00
15257;DHT22;7731;50.720;6.912;2023-08-07T12:44:23;19.70;1.00
15257;DHT22;7731;50.720;6.912;2023-08-07T12:46:54;19.70;1.00
15257;DHT22;7731;50.720;6.912;2023-08-07T12:49:25;20.00;1.00
15257;DHT22;7731;50.720;6.912;2023-08-07T12:51:55;19.80;1.00
15257;DHT22;7731;50.720;6.912;2023-08-07T12:54:30;19.80;7.30
15257;DHT22;7731;50.720;6.912;2023-08-07T12:57:06;19.90;1.00
15257;DHT22;7731;50.720;6.912;2023-08-07T12:59:39;19.90;1.00
15257;DHT22;7731;50.720;6.912;2023-08-07T13:02:10;19.80;1.00
15257;DHT22;7731;50.720;6.912;2023-08-07T13:04:40;19.80;1.00
15257;DHT22;7731;50.720;6.912;2023-08-07T13:07:10;19.40;17.40
15257;DHT22;7731;50.720;6.912;2023-08-07T13:09:44;18.80;99.90
15257;DHT22;7731;50.720;6.912;2023-08-07T13:12:16;18.30;99.90
15257;DHT22;7731;50.720;6.912;2023-08-07T13:14:47;18.20;99.90
15257;DHT22;7731;50.720;6.912;2023-08-07T13:17:23;18.50;99.90
15257;DHT22;7731;50.720;6.912;2023-08-07T13:19:56;18.70;99.90
15257;DHT22;7731;50.720;6.912;2023-08-07T13:22:26;19.10;94.50
15257;DHT22;7731;50.720;6.912;2023-08-07T13:24:59;19.40;99.00
15257;DHT22;7731;50.720;6.912;2023-08-07T13:27:30;19.30;59.30
15257;DHT22;7731;50.720;6.912;2023-08-07T13:30:11;19.20;23.60
15257;DHT22;7731;50.720;6.912;2023-08-07T13:32:42;19.00;29.30
15257;DHT22;7731;50.720;6.912;2023-08-07T13:35:12;19.10;37.60
15257;DHT22;7731;50.720;6.912;2023-08-07T13:37:43;19.20;34.00
15257;DHT22;7731;50.720;6.912;2023-08-07T13:40:24;19.20;45.10
15257;DHT22;7731;50.720;6.912;2023-08-07T13:42:54;19.00;36.80
15257;DHT22;7731;50.720;6.912;2023-08-07T13:45:26;18.60;13.50
15257;DHT22;7731;50.720;6.912;2023-08-07T13:47:56;18.50;24.50
15257;DHT22;7731;50.720;6.912;2023-08-07T13:50:26;18.40;23.20
15257;DHT22;7731;50.720;6.912;2023-08-07T13:52:59;18.40;1.00
15257;DHT22;7731;50.720;6.912;2023-08-07T13:55:43;18.40;1.00
15257;DHT22;7731;50.720;6.912;2023-08-07T13:58:14;18.50;1.00
15257;DHT22;7731;50.720;6.912;2023-08-07T14:00:45;19.00;1.00
15257;DHT22;7731;50.720;6.912;2023-08-07T14:03:21;19.20;1.00
15257;DHT22;7731;50.720;6.912;2023-08-07T14:05:54;19.50;1.00
15257;DHT22;7731;50.720;6.912;2023-08-07T14:08:24;19.70;1.00
15257;DHT22;7731;50.720;6.912;2023-08-07T14:10:58;19.70;1.00
15257;DHT22;7731;50.720;6.912;2023-08-07T14:13:28;19.70;1.00
15257;DHT22;7731;50.720;6.912;2023-08-07T14:16:00;19.80;1.00
15257;DHT22;7731;50.720;6.912;2023-08-07T14:18:35;20.10;1.00
15257;DHT22;7731;50.720;6.912;2023-08-07T14:21:07;20.40;1.00
15257;DHT22;7731;50.720;6.912;2023-08-07T14:23:38;20.50;1.00
15257;DHT22;7731;50.720;6.912;2023-08-07T14:26:14;20.70;1.00
15257;DHT22;7731;50.720;6.912;2023-08-07T14:28:45;20.70;1.00
15257;DHT22;7731;50.720;6.912;2023-08-07T14:31:15;20.90;99.90
15257;DHT22;7731;50.720;6.912;2023-08-07T14:33:45;21.00;99.90
15257;DHT22;7731;50.720;6.912;2023-08-07T14:36:20;20.80;27.70
15257;DHT22;7731;50.720;6.912;2023-08-07T14:38:51;20.40;99.90
15257;DHT22;7731;50.720;6.912;2023-08-07T14:41:29;20.00;1.00
15257;DHT22;7731;50.720;6.912;2023-08-07T14:44:00;20.00;1.00
15257;DHT22;7731;50.720;6.912;2023-08-07T14:46:30;20.20;1.00
15257;DHT22;7731;50.720;6.912;2023-08-07T14:49:01;20.30;1.00
15257;DHT22;7731;50.720;6.912;2023-08-07T14:51:31;20.60;1.00
15257;DHT22;7731;50.720;6.912;2023-08-07T14:54:02;20.80;99.90
15257;DHT22;7731;50.720;6.912;2023-08-07T14:56:38;21.10;1.00
15257;DHT22;7731;50.720;6.912;2023-08-07T14:59:08;21.20;4.60
15257;DHT22;7731;50.720;6.912;2023-08-07T15:01:39;21.10;1.00
15257;DHT22;7731;50.720;6.912;2023-08-07T15:04:09;21.10;99.90
15257;DHT22;7731;50.720;6.912;2023-08-07T15:06:41;21.20;1.00
15257;DHT22;7731;50.720;6.912;2023-08-07T15:09:13;21.40;1.00
15257;DHT22;7731;50.720;6.912;2023-08-07T15:11:53;21.10;99.90
15257;DHT22;7731;50.720;6.912;2023-08-07T15:14:23;20.70;1.00
15257;DHT22;7731;50.720;6.912;2023-08-07T15:16:58;20.90;1.00
15257;DHT22;7731;50.720;6.912;2023-08-07T15:19:29;21.20;99.90
15257;DHT22;7731;50.720;6.912;2023-08-07T15:22:01;21.50;1.00
15257;DHT22;7731;50.720;6.912;2023-08-07T15:24:32;21.80;99.90
15257;DHT22;7731;50.720;6.912;2023-08-07T15:27:05;21.80;1.00
15257;DHT22;7731;50.720;6.912;2023-08-07T15:29:36;21.80;1.00
15257;DHT22;7731;50.720;6.912;2023-08-07T15:32:08;21.60;1.00
15257;DHT22;7731;50.720;6.912;2023-08-07T15:34:50;21.30;1.00
15257;DHT22;7731;50.720;6.912;2023-08-07T15:37:29;21.30;99.90
15257;DHT22;7731;50.720;6.912;2023-08-07T15:40:02;21.30;99.90
15257;DHT22;7731;50.720;6.912;2023-08-07T15:42:36;21.30;99.90
15257;DHT22;7731;50.720;6.912;2023-08-07T15:45:12;21.20;1.00
15257;DHT22;7731;50.720;6.912;2023-08-07T15:47:43;21.20;99.90
15257;DHT22;7731;50.720;6.912;2023-08-07T15:50:13;21.30;99.90
15257;DHT22;7731;50.720;6.912;2023-08-07T15:52:44;21.20;99.90
15257;DHT22;7731;50.720;6.912;2023-08-07T15:55:22;21.00;32.30
15257;DHT22;7731;50.720;6.912;2023-08-07T15:57:55;20.70;99.90
15257;DHT22;7731;50.720;6.912;2023-08-07T16:00:34;20.50;99.90
15257;DHT22;7731;50.720;6.912;2023-08-07T16:03:06;20.50;99.90
15257;DHT22;7731;50.720;6.912;2023-08-07T16:05:42;20.40;1.00
15257;DHT22;7731;50.720;6.912;2023-08-07T16:08:16;20.30;99.90
15257;DHT22;7731;50.720;6.912;2023-08-07T16:10:46;20.30;1.00
15257;DHT22;7731;50.720;6.912;2023-08-07T16:13:22;20.20;99.90
15257;DHT22;7731;50.720;6.912;2023-08-07T16:15:55;20.20;99.90
15257;DHT22;7731;50.720;6.912;2023-08-07T16:18:38;20.30;99.90
15257;DHT22;7731;50.720;6.912;2023-08-07T16:21:08;20.40;1.00
15257;DHT22;7731;50.720;6.912;2023-08-07T16:23:40;20.50;61.00
15257;DHT22;7731;50.720;6.912;2023-08-07T16:26:11;20.50;1.00
15257;DHT22;7731;50.720;6.912;2023-08-07T16:28:49;20.40;1.00
15257;DHT22;7731;50.720;6.912;2023-08-07T16:31:25;20.10;1.00
15257;DHT22;7731;50.720;6.912;2023-08-07T16:33:56;19.90;1.00